sensor_id;sensor_type;location;lat;lon;timestamp;P1;durP1;ratioP1;P2;durP2;ratioP2
20322;SDS011;10319;52.206;20.996;2022-08-04T00:03:56;9.98;;;3.00;;
20322;SDS011;10319;52.206;20.996;2022-08-04T00:08:48;8.70;;;2.50;;
20322;SDS011;10319;52.206;20.996;2022-08-04T00:11:18;7.40;;;2.50;;
20322;SDS011;10319;52.206;20.996;2022-08-04T00:13:46;9.95;;;2.67;;
20322;SDS011;10319;52.206;20.996;2022-08-04T00:16:13;8.10;;;2.42;;
20322;SDS011;10319;52.206;20.996;2022-08-04T00:18:40;9.95;;;2.83;;
20322;SDS011;10319;52.206;20.996;2022-08-04T00:21:05;9.40;;;2.92;;
20322;SDS011;10319;52.206;20.996;2022-08-04T00:23:34;9.52;;;2.85;;
20322;SDS011;10319;52.206;20.996;2022-08-04T00:26:00;7.60;;;2.58;;
20322;SDS011;10319;52.206;20.996;2022-08-04T00:28:25;9.55;;;2.67;;
20322;SDS011;10319;52.206;20.996;2022-08-04T00:30:51;9.70;;;2.78;;
20322;SDS011;10319;52.206;20.996;2022-08-04T00:33:20;8.27;;;2.40;;
20322;SDS011;10319;52.206;20.996;2022-08-04T00:35:49;8.32;;;2.47;;
20322;SDS011;10319;52.206;20.996;2022-08-04T00:38:15;7.88;;;2.28;;
20322;SDS011;10319;52.206;20.996;2022-08-04T00:43:20;8.48;;;2.42;;
20322;SDS011;10319;52.206;20.996;2022-08-04T00:46:02;6.85;;;2.25;;
20322;SDS011;10319;52.206;20.996;2022-08-04T00:49:16;7.15;;;2.15;;
20322;SDS011;10319;52.206;20.996;2022-08-04T00:59:13;9.52;;;2.72;;
20322;SDS011;10319;52.206;20.996;2022-08-04T01:16:52;7.88;;;2.22;;
20322;SDS011;10319;52.206;20.996;2022-08-04T01:29:55;8.18;;;2.50;;
20322;SDS011;10319;52.206;20.996;2022-08-04T01:32:30;9.98;;;2.70;;
20322;SDS011;10319;52.206;20.996;2022-08-04T01:34:59;11.18;;;2.70;;
20322;SDS011;10319;52.206;20.996;2022-08-04T01:40:02;7.93;;;2.20;;
20322;SDS011;10319;52.206;20.996;2022-08-04T01:42:30;8.60;;;2.10;;
20322;SDS011;10319;52.206;20.996;2022-08-04T01:44:55;8.52;;;2.47;;
20322;SDS011;10319;52.206;20.996;2022-08-04T01:47:22;8.07;;;2.30;;
20322;SDS011;10319;52.206;20.996;2022-08-04T01:49:50;9.32;;;2.10;;
20322;SDS011;10319;52.206;20.996;2022-08-04T01:52:16;8.77;;;2.30;;
20322;SDS011;10319;52.206;20.996;2022-08-04T01:54:42;8.48;;;2.33;;
20322;SDS011;10319;52.206;20.996;2022-08-04T01:57:10;7.15;;;2.00;;
20322;SDS011;10319;52.206;20.996;2022-08-04T01:59:36;6.85;;;2.17;;
20322;SDS011;10319;52.206;20.996;2022-08-04T02:02:02;9.48;;;2.45;;
20322;SDS011;10319;52.206;20.996;2022-08-04T02:04:27;6.43;;;2.17;;
20322;SDS011;10319;52.206;20.996;2022-08-04T02:12:03;9.68;;;2.25;;
20322;SDS011;10319;52.206;20.996;2022-08-04T02:14:30;7.63;;;2.10;;
20322;SDS011;10319;52.206;20.996;2022-08-04T02:17:09;8.38;;;2.10;;
20322;SDS011;10319;52.206;20.996;2022-08-04T02:19:37;8.82;;;2.20;;
20322;SDS011;10319;52.206;20.996;2022-08-04T02:22:11;6.68;;;2.10;;
20322;SDS011;10319;52.206;20.996;2022-08-04T02:24:42;6.18;;;1.80;;
20322;SDS011;10319;52.206;20.996;2022-08-04T02:27:09;6.60;;;2.10;;
20322;SDS011;10319;52.206;20.996;2022-08-04T02:29:39;8.43;;;2.50;;
20322;SDS011;10319;52.206;20.996;2022-08-04T02:32:14;8.98;;;2.50;;
20322;SDS011;10319;52.206;20.996;2022-08-04T02:37:08;10.68;;;2.72;;
20322;SDS011;10319;52.206;20.996;2022-08-04T02:39:34;6.65;;;2.13;;
20322;SDS011;10319;52.206;20.996;2022-08-04T02:42:01;6.40;;;1.92;;
20322;SDS011;10319;52.206;20.996;2022-08-04T02:44:27;7.72;;;2.15;;
20322;SDS011;10319;52.206;20.996;2022-08-04T02:46:53;6.93;;;1.92;;
20322;SDS011;10319;52.206;20.996;2022-08-04T02:49:18;10.32;;;2.25;;
20322;SDS011;10319;52.206;20.996;2022-08-04T02:51:46;6.40;;;2.10;;
20322;SDS011;10319;52.206;20.996;2022-08-04T02:54:14;9.20;;;2.13;;
20322;SDS011;10319;52.206;20.996;2022-08-04T02:56:39;8.23;;;2.20;;
20322;SDS011;10319;52.206;20.996;2022-08-04T02:59:07;5.32;;;1.80;;
20322;SDS011;10319;52.206;20.996;2022-08-04T03:01:32;6.13;;;2.00;;
20322;SDS011;10319;52.206;20.996;2022-08-04T03:11:55;6.80;;;1.93;;
20322;SDS011;10319;52.206;20.996;2022-08-04T03:22:40;5.63;;;1.90;;
20322;SDS011;10319;52.206;20.996;2022-08-04T03:30:17;4.03;;;1.50;;
20322;SDS011;10319;52.206;20.996;2022-08-04T03:37:59;4.43;;;1.60;;
20322;SDS011;10319;52.206;20.996;2022-08-04T03:40:34;7.03;;;1.80;;
20322;SDS011;10319;52.206;20.996;2022-08-04T03:48:13;8.45;;;2.20;;
20322;SDS011;10319;52.206;20.996;2022-08-04T03:53:52;9.82;;;2.40;;
20322;SDS011;10319;52.206;20.996;2022-08-04T03:56:33;8.68;;;1.98;;
20322;SDS011;10319;52.206;20.996;2022-08-04T04:02:03;5.65;;;1.80;;
20322;SDS011;10319;52.206;20.996;2022-08-04T04:12:16;7.07;;;2.20;;
20322;SDS011;10319;52.206;20.996;2022-08-04T04:22:28;7.72;;;2.05;;
20322;SDS011;10319;52.206;20.996;2022-08-04T04:27:30;7.68;;;2.28;;
20322;SDS011;10319;52.206;20.996;2022-08-04T04:30:06;7.50;;;2.10;;
20322;SDS011;10319;52.206;20.996;2022-08-04T04:35:12;8.03;;;2.27;;
20322;SDS011;10319;52.206;20.996;2022-08-04T04:42:52;7.45;;;2.10;;
20322;SDS011;10319;52.206;20.996;2022-08-04T04:45:28;8.38;;;2.80;;
20322;SDS011;10319;52.206;20.996;2022-08-04T04:47:55;11.32;;;2.55;;
20322;SDS011;10319;52.206;20.996;2022-08-04T04:52:54;9.48;;;2.65;;
20322;SDS011;10319;52.206;20.996;2022-08-04T04:55:25;7.32;;;2.38;;
20322;SDS011;10319;52.206;20.996;2022-08-04T04:57:51;10.25;;;2.97;;
20322;SDS011;10319;52.206;20.996;2022-08-04T05:00:17;6.65;;;2.47;;
20322;SDS011;10319;52.206;20.996;2022-08-04T05:05:14;9.75;;;3.10;;
20322;SDS011;10319;52.206;20.996;2022-08-04T05:07:54;9.63;;;2.90;;
20322;SDS011;10319;52.206;20.996;2022-08-04T05:13:15;10.63;;;3.05;;
20322;SDS011;10319;52.206;20.996;2022-08-04T05:15:46;7.65;;;2.25;;
20322;SDS011;10319;52.206;20.996;2022-08-04T05:18:15;8.75;;;2.60;;
20322;SDS011;10319;52.206;20.996;2022-08-04T05:20:43;9.65;;;2.83;;
20322;SDS011;10319;52.206;20.996;2022-08-04T05:23:17;12.07;;;2.83;;
20322;SDS011;10319;52.206;20.996;2022-08-04T05:25:51;7.93;;;2.53;;
20322;SDS011;10319;52.206;20.996;2022-08-04T05:28:24;9.18;;;2.60;;
20322;SDS011;10319;52.206;20.996;2022-08-04T05:30:51;12.10;;;2.83;;
20322;SDS011;10319;52.206;20.996;2022-08-04T05:33:18;11.18;;;3.10;;
20322;SDS011;10319;52.206;20.996;2022-08-04T05:35:45;10.43;;;3.05;;
20322;SDS011;10319;52.206;20.996;2022-08-04T05:38:13;12.38;;;3.33;;
20322;SDS011;10319;52.206;20.996;2022-08-04T05:40:39;9.98;;;2.90;;
20322;SDS011;10319;52.206;20.996;2022-08-04T05:43:05;8.40;;;2.45;;
20322;SDS011;10319;52.206;20.996;2022-08-04T05:45:32;9.35;;;2.83;;
20322;SDS011;10319;52.206;20.996;2022-08-04T05:47:58;10.02;;;2.65;;
20322;SDS011;10319;52.206;20.996;2022-08-04T05:50:23;10.53;;;2.73;;
20322;SDS011;10319;52.206;20.996;2022-08-04T05:52:48;10.07;;;2.45;;
20322;SDS011;10319;52.206;20.996;2022-08-04T05:55:14;11.15;;;3.45;;
20322;SDS011;10319;52.206;20.996;2022-08-04T05:57:40;8.68;;;2.45;;
20322;SDS011;10319;52.206;20.996;2022-08-04T06:00:06;9.05;;;2.50;;
20322;SDS011;10319;52.206;20.996;2022-08-04T06:02:32;7.60;;;2.38;;
20322;SDS011;10319;52.206;20.996;2022-08-04T06:04:58;12.50;;;2.58;;
20322;SDS011;10319;52.206;20.996;2022-08-04T06:07:24;9.20;;;2.60;;
20322;SDS011;10319;52.206;20.996;2022-08-04T06:09:50;7.13;;;2.20;;
20322;SDS011;10319;52.206;20.996;2022-08-04T06:12:20;7.80;;;2.08;;
20322;SDS011;10319;52.206;20.996;2022-08-04T06:14:47;8.05;;;2.30;;
20322;SDS011;10319;52.206;20.996;2022-08-04T06:17:14;10.20;;;2.78;;
20322;SDS011;10319;52.206;20.996;2022-08-04T06:19:39;8.15;;;2.60;;
20322;SDS011;10319;52.206;20.996;2022-08-04T06:22:05;11.60;;;2.60;;
20322;SDS011;10319;52.206;20.996;2022-08-04T06:24:32;10.18;;;2.35;;
20322;SDS011;10319;52.206;20.996;2022-08-04T06:26:59;8.70;;;2.45;;
20322;SDS011;10319;52.206;20.996;2022-08-04T06:29:26;13.45;;;2.97;;
20322;SDS011;10319;52.206;20.996;2022-08-04T06:32:00;10.98;;;2.83;;
20322;SDS011;10319;52.206;20.996;2022-08-04T06:34:28;10.82;;;2.50;;
20322;SDS011;10319;52.206;20.996;2022-08-04T06:36:53;8.40;;;2.42;;
20322;SDS011;10319;52.206;20.996;2022-08-04T06:39:20;7.20;;;2.20;;
20322;SDS011;10319;52.206;20.996;2022-08-04T06:41:46;8.82;;;2.50;;
20322;SDS011;10319;52.206;20.996;2022-08-04T06:44:12;9.13;;;2.35;;
20322;SDS011;10319;52.206;20.996;2022-08-04T06:46:39;11.32;;;2.47;;
20322;SDS011;10319;52.206;20.996;2022-08-04T06:49:05;10.43;;;2.33;;
20322;SDS011;10319;52.206;20.996;2022-08-04T06:51:30;11.05;;;2.30;;
20322;SDS011;10319;52.206;20.996;2022-08-04T06:53:57;8.20;;;2.30;;
20322;SDS011;10319;52.206;20.996;2022-08-04T06:56:22;8.50;;;2.03;;
20322;SDS011;10319;52.206;20.996;2022-08-04T06:58:49;11.70;;;2.40;;
20322;SDS011;10319;52.206;20.996;2022-08-04T07:01:15;8.90;;;2.17;;
20322;SDS011;10319;52.206;20.996;2022-08-04T07:03:41;9.23;;;2.25;;
20322;SDS011;10319;52.206;20.996;2022-08-04T07:06:07;8.50;;;2.30;;
20322;SDS011;10319;52.206;20.996;2022-08-04T07:08:33;7.90;;;2.30;;
20322;SDS011;10319;52.206;20.996;2022-08-04T07:10:59;9.10;;;2.30;;
20322;SDS011;10319;52.206;20.996;2022-08-04T07:13:24;10.38;;;2.55;;
20322;SDS011;10319;52.206;20.996;2022-08-04T07:15:50;10.93;;;2.20;;
20322;SDS011;10319;52.206;20.996;2022-08-04T07:18:16;11.20;;;2.58;;
20322;SDS011;10319;52.206;20.996;2022-08-04T07:20:42;11.45;;;2.17;;
20322;SDS011;10319;52.206;20.996;2022-08-04T07:23:08;6.00;;;1.98;;
20322;SDS011;10319;52.206;20.996;2022-08-04T07:25:35;8.15;;;1.98;;
20322;SDS011;10319;52.206;20.996;2022-08-04T07:28:00;6.00;;;1.67;;
20322;SDS011;10319;52.206;20.996;2022-08-04T07:30:25;6.45;;;1.65;;
20322;SDS011;10319;52.206;20.996;2022-08-04T07:32:51;5.85;;;1.60;;
20322;SDS011;10319;52.206;20.996;2022-08-04T07:35:18;6.13;;;1.38;;
20322;SDS011;10319;52.206;20.996;2022-08-04T07:37:44;5.18;;;1.45;;
20322;SDS011;10319;52.206;20.996;2022-08-04T07:40:09;4.00;;;1.38;;
20322;SDS011;10319;52.206;20.996;2022-08-04T07:42:35;5.68;;;1.42;;
20322;SDS011;10319;52.206;20.996;2022-08-04T07:45:00;7.38;;;1.50;;
20322;SDS011;10319;52.206;20.996;2022-08-04T07:47:25;4.20;;;1.43;;
20322;SDS011;10319;52.206;20.996;2022-08-04T07:49:51;6.40;;;1.63;;
20322;SDS011;10319;52.206;20.996;2022-08-04T07:52:16;6.00;;;1.50;;
20322;SDS011;10319;52.206;20.996;2022-08-04T07:54:42;6.57;;;1.52;;
20322;SDS011;10319;52.206;20.996;2022-08-04T07:57:07;7.80;;;1.48;;
20322;SDS011;10319;52.206;20.996;2022-08-04T07:59:32;5.77;;;1.60;;
20322;SDS011;10319;52.206;20.996;2022-08-04T08:01:59;4.68;;;1.50;;
20322;SDS011;10319;52.206;20.996;2022-08-04T08:04:25;4.53;;;1.50;;
20322;SDS011;10319;52.206;20.996;2022-08-04T08:06:51;6.88;;;1.42;;
20322;SDS011;10319;52.206;20.996;2022-08-04T08:09:17;5.35;;;1.60;;
20322;SDS011;10319;52.206;20.996;2022-08-04T08:11:43;6.32;;;1.48;;
20322;SDS011;10319;52.206;20.996;2022-08-04T08:14:09;5.72;;;1.55;;
20322;SDS011;10319;52.206;20.996;2022-08-04T08:16:34;4.57;;;1.50;;
20322;SDS011;10319;52.206;20.996;2022-08-04T08:19:00;3.90;;;1.30;;
20322;SDS011;10319;52.206;20.996;2022-08-04T08:21:25;6.43;;;1.50;;
20322;SDS011;10319;52.206;20.996;2022-08-04T08:23:51;3.65;;;1.05;;
20322;SDS011;10319;52.206;20.996;2022-08-04T08:26:16;6.18;;;1.40;;
20322;SDS011;10319;52.206;20.996;2022-08-04T08:28:41;6.03;;;1.50;;
20322;SDS011;10319;52.206;20.996;2022-08-04T08:31:07;6.13;;;1.38;;
20322;SDS011;10319;52.206;20.996;2022-08-04T08:33:32;5.32;;;1.50;;
20322;SDS011;10319;52.206;20.996;2022-08-04T08:36:00;5.78;;;1.50;;
20322;SDS011;10319;52.206;20.996;2022-08-04T08:38:36;4.35;;;1.40;;
20322;SDS011;10319;52.206;20.996;2022-08-04T08:43:46;8.30;;;1.77;;
20322;SDS011;10319;52.206;20.996;2022-08-04T08:51:39;6.75;;;1.75;;
20322;SDS011;10319;52.206;20.996;2022-08-04T08:56:51;4.80;;;1.60;;
20322;SDS011;10319;52.206;20.996;2022-08-04T09:12:06;4.80;;;1.20;;
20322;SDS011;10319;52.206;20.996;2022-08-04T09:17:12;3.58;;;1.20;;
20322;SDS011;10319;52.206;20.996;2022-08-04T09:19:43;3.55;;;1.13;;
20322;SDS011;10319;52.206;20.996;2022-08-04T09:22:19;4.00;;;1.23;;
20322;SDS011;10319;52.206;20.996;2022-08-04T09:24:48;3.75;;;1.10;;
20322;SDS011;10319;52.206;20.996;2022-08-04T09:27:17;5.82;;;1.33;;
20322;SDS011;10319;52.206;20.996;2022-08-04T09:29:46;5.55;;;1.67;;
20322;SDS011;10319;52.206;20.996;2022-08-04T09:45:23;4.50;;;1.10;;
20322;SDS011;10319;52.206;20.996;2022-08-04T09:50:43;4.28;;;1.15;;
20322;SDS011;10319;52.206;20.996;2022-08-04T09:58:11;4.27;;;1.47;;
20322;SDS011;10319;52.206;20.996;2022-08-04T10:00:46;3.65;;;1.08;;
20322;SDS011;10319;52.206;20.996;2022-08-04T10:03:13;2.85;;;1.20;;
20322;SDS011;10319;52.206;20.996;2022-08-04T10:11:07;3.42;;;1.30;;
20322;SDS011;10319;52.206;20.996;2022-08-04T10:18:51;3.88;;;1.40;;
20322;SDS011;10319;52.206;20.996;2022-08-04T10:21:25;3.83;;;1.20;;
20322;SDS011;10319;52.206;20.996;2022-08-04T10:24:06;3.67;;;1.20;;
20322;SDS011;10319;52.206;20.996;2022-08-04T10:29:08;4.43;;;1.27;;
20322;SDS011;10319;52.206;20.996;2022-08-04T10:31:35;3.47;;;1.42;;
20322;SDS011;10319;52.206;20.996;2022-08-04T10:34:05;4.35;;;1.40;;
20322;SDS011;10319;52.206;20.996;2022-08-04T10:36:39;3.20;;;1.27;;
20322;SDS011;10319;52.206;20.996;2022-08-04T10:39:07;2.88;;;1.20;;
20322;SDS011;10319;52.206;20.996;2022-08-04T10:41:43;3.55;;;1.40;;
20322;SDS011;10319;52.206;20.996;2022-08-04T10:47:02;3.78;;;1.35;;
20322;SDS011;10319;52.206;20.996;2022-08-04T10:49:40;4.47;;;1.33;;
20322;SDS011;10319;52.206;20.996;2022-08-04T10:52:07;5.13;;;1.58;;
20322;SDS011;10319;52.206;20.996;2022-08-04T10:59:49;5.70;;;1.60;;
20322;SDS011;10319;52.206;20.996;2022-08-04T11:05:04;5.65;;;1.45;;
20322;SDS011;10319;52.206;20.996;2022-08-04T11:07:34;5.82;;;1.55;;
20322;SDS011;10319;52.206;20.996;2022-08-04T11:10:01;5.53;;;1.40;;
20322;SDS011;10319;52.206;20.996;2022-08-04T11:12:26;5.07;;;1.50;;
20322;SDS011;10319;52.206;20.996;2022-08-04T11:14:55;5.07;;;1.50;;
20322;SDS011;10319;52.206;20.996;2022-08-04T11:17:26;2.67;;;1.20;;
20322;SDS011;10319;52.206;20.996;2022-08-04T11:20:00;4.20;;;1.50;;
20322;SDS011;10319;52.206;20.996;2022-08-04T11:22:27;3.67;;;1.25;;
20322;SDS011;10319;52.206;20.996;2022-08-04T11:28:10;3.33;;;1.20;;
20322;SDS011;10319;52.206;20.996;2022-08-04T11:30:46;4.82;;;1.40;;
20322;SDS011;10319;52.206;20.996;2022-08-04T11:35:46;3.40;;;1.30;;
20322;SDS011;10319;52.206;20.996;2022-08-04T11:40:43;3.95;;;1.33;;
20322;SDS011;10319;52.206;20.996;2022-08-04T11:43:11;4.22;;;0.98;;
20322;SDS011;10319;52.206;20.996;2022-08-04T11:45:40;3.83;;;1.27;;
20322;SDS011;10319;52.206;20.996;2022-08-04T11:48:10;4.70;;;1.30;;
20322;SDS011;10319;52.206;20.996;2022-08-04T11:50:44;4.07;;;1.27;;
20322;SDS011;10319;52.206;20.996;2022-08-04T11:53:13;4.28;;;1.30;;
20322;SDS011;10319;52.206;20.996;2022-08-04T11:55:40;2.95;;;1.17;;
20322;SDS011;10319;52.206;20.996;2022-08-04T11:58:06;3.92;;;1.33;;
20322;SDS011;10319;52.206;20.996;2022-08-04T12:00:31;2.70;;;1.10;;
20322;SDS011;10319;52.206;20.996;2022-08-04T12:03:23;2.50;;;1.08;;
20322;SDS011;10319;52.206;20.996;2022-08-04T12:08:21;4.03;;;1.20;;
20322;SDS011;10319;52.206;20.996;2022-08-04T12:11:00;3.10;;;1.17;;
20322;SDS011;10319;52.206;20.996;2022-08-04T12:16:17;3.78;;;1.20;;
20322;SDS011;10319;52.206;20.996;2022-08-04T12:18:46;3.65;;;0.98;;
20322;SDS011;10319;52.206;20.996;2022-08-04T12:21:17;4.95;;;1.48;;
20322;SDS011;10319;52.206;20.996;2022-08-04T12:23:47;4.22;;;1.45;;
20322;SDS011;10319;52.206;20.996;2022-08-04T12:26:14;4.78;;;1.20;;
20322;SDS011;10319;52.206;20.996;2022-08-04T12:28:42;5.30;;;1.30;;
20322;SDS011;10319;52.206;20.996;2022-08-04T12:31:19;2.63;;;1.13;;
20322;SDS011;10319;52.206;20.996;2022-08-04T12:34:02;3.72;;;1.10;;
20322;SDS011;10319;52.206;20.996;2022-08-04T12:39:08;3.75;;;1.30;;
20322;SDS011;10319;52.206;20.996;2022-08-04T12:41:38;4.07;;;1.30;;
20322;SDS011;10319;52.206;20.996;2022-08-04T12:44:08;4.47;;;1.50;;
20322;SDS011;10319;52.206;20.996;2022-08-04T12:46:34;5.30;;;1.33;;
20322;SDS011;10319;52.206;20.996;2022-08-04T12:49:01;5.47;;;1.42;;
20322;SDS011;10319;52.206;20.996;2022-08-04T12:51:27;5.70;;;1.40;;
20322;SDS011;10319;52.206;20.996;2022-08-04T12:53:53;1.98;;;1.00;;
20322;SDS011;10319;52.206;20.996;2022-08-04T12:56:22;4.47;;;1.42;;
20322;SDS011;10319;52.206;20.996;2022-08-04T12:58:49;5.22;;;1.17;;
20322;SDS011;10319;52.206;20.996;2022-08-04T13:01:19;5.68;;;1.40;;
20322;SDS011;10319;52.206;20.996;2022-08-04T13:06:10;4.00;;;1.20;;
20322;SDS011;10319;52.206;20.996;2022-08-04T13:08:38;2.95;;;1.10;;
20322;SDS011;10319;52.206;20.996;2022-08-04T13:11:04;4.68;;;1.30;;
20322;SDS011;10319;52.206;20.996;2022-08-04T13:13:30;3.15;;;1.10;;
20322;SDS011;10319;52.206;20.996;2022-08-04T13:15:59;5.90;;;1.10;;
20322;SDS011;10319;52.206;20.996;2022-08-04T13:18:26;6.60;;;1.50;;
20322;SDS011;10319;52.206;20.996;2022-08-04T13:20:53;6.90;;;1.30;;
20322;SDS011;10319;52.206;20.996;2022-08-04T13:23:19;2.60;;;1.00;;
20322;SDS011;10319;52.206;20.996;2022-08-04T13:25:48;3.42;;;1.10;;
20322;SDS011;10319;52.206;20.996;2022-08-04T13:28:15;2.05;;;1.08;;
20322;SDS011;10319;52.206;20.996;2022-08-04T13:30:42;3.38;;;1.00;;
20322;SDS011;10319;52.206;20.996;2022-08-04T13:33:08;2.83;;;1.20;;
20322;SDS011;10319;52.206;20.996;2022-08-04T13:35:33;3.95;;;0.93;;
20322;SDS011;10319;52.206;20.996;2022-08-04T13:37:59;3.58;;;1.10;;
20322;SDS011;10319;52.206;20.996;2022-08-04T13:40:25;1.58;;;0.80;;
20322;SDS011;10319;52.206;20.996;2022-08-04T13:42:52;2.67;;;0.88;;
20322;SDS011;10319;52.206;20.996;2022-08-04T13:45:19;5.30;;;1.20;;
20322;SDS011;10319;52.206;20.996;2022-08-04T13:47:45;4.03;;;1.25;;
20322;SDS011;10319;52.206;20.996;2022-08-04T13:50:13;4.28;;;1.20;;
20322;SDS011;10319;52.206;20.996;2022-08-04T13:52:40;3.63;;;1.10;;
20322;SDS011;10319;52.206;20.996;2022-08-04T13:55:06;3.90;;;1.05;;
20322;SDS011;10319;52.206;20.996;2022-08-04T13:57:42;3.92;;;1.05;;
20322;SDS011;10319;52.206;20.996;2022-08-04T14:00:08;2.70;;;1.00;;
20322;SDS011;10319;52.206;20.996;2022-08-04T14:02:37;2.95;;;1.00;;
20322;SDS011;10319;52.206;20.996;2022-08-04T14:05:13;4.03;;;1.00;;
20322;SDS011;10319;52.206;20.996;2022-08-04T14:07:40;1.00;;;0.70;;
20322;SDS011;10319;52.206;20.996;2022-08-04T14:10:09;2.50;;;0.90;;
20322;SDS011;10319;52.206;20.996;2022-08-04T14:12:35;4.07;;;1.20;;
20322;SDS011;10319;52.206;20.996;2022-08-04T14:15:07;3.03;;;0.73;;
20322;SDS011;10319;52.206;20.996;2022-08-04T14:17:52;2.10;;;0.85;;
20322;SDS011;10319;52.206;20.996;2022-08-04T14:20:17;3.90;;;0.97;;
20322;SDS011;10319;52.206;20.996;2022-08-04T14:22:42;1.57;;;0.90;;
20322;SDS011;10319;52.206;20.996;2022-08-04T14:25:14;2.95;;;0.85;;
20322;SDS011;10319;52.206;20.996;2022-08-04T14:27:46;2.53;;;0.70;;
20322;SDS011;10319;52.206;20.996;2022-08-04T14:32:56;3.33;;;1.00;;
20322;SDS011;10319;52.206;20.996;2022-08-04T14:35:22;1.42;;;0.70;;
20322;SDS011;10319;52.206;20.996;2022-08-04T14:37:51;3.15;;;0.90;;
20322;SDS011;10319;52.206;20.996;2022-08-04T14:40:26;1.63;;;0.77;;
20322;SDS011;10319;52.206;20.996;2022-08-04T14:42:52;1.67;;;0.77;;
20322;SDS011;10319;52.206;20.996;2022-08-04T14:45:17;1.52;;;0.70;;
20322;SDS011;10319;52.206;20.996;2022-08-04T14:47:43;2.72;;;0.88;;
20322;SDS011;10319;52.206;20.996;2022-08-04T14:50:09;4.13;;;1.00;;
20322;SDS011;10319;52.206;20.996;2022-08-04T14:52:35;3.40;;;0.90;;
20322;SDS011;10319;52.206;20.996;2022-08-04T14:57:41;1.33;;;0.57;;
20322;SDS011;10319;52.206;20.996;2022-08-04T15:00:06;2.87;;;0.87;;
20322;SDS011;10319;52.206;20.996;2022-08-04T15:02:32;4.25;;;0.95;;
20322;SDS011;10319;52.206;20.996;2022-08-04T15:05:00;4.15;;;1.00;;
20322;SDS011;10319;52.206;20.996;2022-08-04T15:07:25;1.98;;;0.75;;
20322;SDS011;10319;52.206;20.996;2022-08-04T15:09:51;2.40;;;0.93;;
20322;SDS011;10319;52.206;20.996;2022-08-04T15:12:16;2.85;;;0.70;;
20322;SDS011;10319;52.206;20.996;2022-08-04T15:14:41;3.47;;;0.82;;
20322;SDS011;10319;52.206;20.996;2022-08-04T15:17:08;1.15;;;0.70;;
20322;SDS011;10319;52.206;20.996;2022-08-04T15:19:35;1.55;;;0.60;;
20322;SDS011;10319;52.206;20.996;2022-08-04T15:22:01;2.33;;;0.82;;
20322;SDS011;10319;52.206;20.996;2022-08-04T15:24:26;5.38;;;1.17;;
20322;SDS011;10319;52.206;20.996;2022-08-04T15:26:51;2.88;;;0.98;;
20322;SDS011;10319;52.206;20.996;2022-08-04T15:29:21;2.72;;;0.63;;
20322;SDS011;10319;52.206;20.996;2022-08-04T15:31:47;4.57;;;1.02;;
20322;SDS011;10319;52.206;20.996;2022-08-04T15:34:13;2.55;;;1.05;;
20322;SDS011;10319;52.206;20.996;2022-08-04T15:36:57;2.13;;;0.90;;
20322;SDS011;10319;52.206;20.996;2022-08-04T15:47:12;3.00;;;0.80;;
20322;SDS011;10319;52.206;20.996;2022-08-04T15:49:37;5.40;;;0.70;;
20322;SDS011;10319;52.206;20.996;2022-08-04T15:52:06;2.55;;;1.00;;
20322;SDS011;10319;52.206;20.996;2022-08-04T15:54:32;4.22;;;0.85;;
20322;SDS011;10319;52.206;20.996;2022-08-04T15:56:59;2.45;;;0.90;;
20322;SDS011;10319;52.206;20.996;2022-08-04T16:02:28;4.22;;;1.10;;
20322;SDS011;10319;52.206;20.996;2022-08-04T16:05:27;4.65;;;1.00;;
20322;SDS011;10319;52.206;20.996;2022-08-04T16:07:58;3.33;;;0.90;;
20322;SDS011;10319;52.206;20.996;2022-08-04T16:12:56;1.83;;;0.82;;
20322;SDS011;10319;52.206;20.996;2022-08-04T16:18:06;2.15;;;0.95;;
20322;SDS011;10319;52.206;20.996;2022-08-04T16:20:32;4.00;;;1.23;;
20322;SDS011;10319;52.206;20.996;2022-08-04T16:22:59;3.00;;;1.08;;
20322;SDS011;10319;52.206;20.996;2022-08-04T16:25:43;4.03;;;1.05;;
20322;SDS011;10319;52.206;20.996;2022-08-04T16:31:12;4.35;;;1.08;;
20322;SDS011;10319;52.206;20.996;2022-08-04T16:33:37;3.87;;;1.10;;
20322;SDS011;10319;52.206;20.996;2022-08-04T16:36:04;2.83;;;0.88;;
20322;SDS011;10319;52.206;20.996;2022-08-04T16:38:29;4.25;;;1.08;;
20322;SDS011;10319;52.206;20.996;2022-08-04T16:40:58;3.00;;;1.00;;
20322;SDS011;10319;52.206;20.996;2022-08-04T16:43:27;2.65;;;0.90;;
20322;SDS011;10319;52.206;20.996;2022-08-04T16:45:54;4.38;;;1.00;;
20322;SDS011;10319;52.206;20.996;2022-08-04T16:48:24;3.53;;;1.00;;
20322;SDS011;10319;52.206;20.996;2022-08-04T16:53:14;4.07;;;1.07;;
20322;SDS011;10319;52.206;20.996;2022-08-04T16:55:46;5.68;;;1.30;;
20322;SDS011;10319;52.206;20.996;2022-08-04T16:58:11;3.58;;;0.90;;
20322;SDS011;10319;52.206;20.996;2022-08-04T17:00:37;2.72;;;1.13;;
20322;SDS011;10319;52.206;20.996;2022-08-04T17:03:05;5.00;;;1.20;;
20322;SDS011;10319;52.206;20.996;2022-08-04T17:05:32;3.35;;;1.30;;
20322;SDS011;10319;52.206;20.996;2022-08-04T17:07:58;4.82;;;1.35;;
20322;SDS011;10319;52.206;20.996;2022-08-04T17:10:34;4.80;;;1.13;;
20322;SDS011;10319;52.206;20.996;2022-08-04T17:13:00;5.00;;;1.20;;
20322;SDS011;10319;52.206;20.996;2022-08-04T17:15:25;4.72;;;1.20;;
20322;SDS011;10319;52.206;20.996;2022-08-04T17:17:51;3.58;;;1.17;;
20322;SDS011;10319;52.206;20.996;2022-08-04T17:20:16;4.43;;;1.05;;
20322;SDS011;10319;52.206;20.996;2022-08-04T17:22:42;2.97;;;0.98;;
20322;SDS011;10319;52.206;20.996;2022-08-04T17:25:08;4.43;;;0.90;;
20322;SDS011;10319;52.206;20.996;2022-08-04T17:27:33;5.47;;;1.20;;
20322;SDS011;10319;52.206;20.996;2022-08-04T17:29:58;5.32;;;1.30;;
20322;SDS011;10319;52.206;20.996;2022-08-04T17:32:23;2.30;;;1.08;;
20322;SDS011;10319;52.206;20.996;2022-08-04T17:34:49;5.72;;;1.15;;
20322;SDS011;10319;52.206;20.996;2022-08-04T17:37:15;5.18;;;1.08;;
20322;SDS011;10319;52.206;20.996;2022-08-04T17:39:40;2.20;;;0.90;;
20322;SDS011;10319;52.206;20.996;2022-08-04T17:42:05;4.30;;;1.17;;
20322;SDS011;10319;52.206;20.996;2022-08-04T17:44:34;4.32;;;1.10;;
20322;SDS011;10319;52.206;20.996;2022-08-04T17:47:18;3.25;;;0.90;;
20322;SDS011;10319;52.206;20.996;2022-08-04T17:49:43;3.47;;;1.10;;
20322;SDS011;10319;52.206;20.996;2022-08-04T17:52:09;2.53;;;1.00;;
20322;SDS011;10319;52.206;20.996;2022-08-04T17:54:43;4.82;;;1.20;;
20322;SDS011;10319;52.206;20.996;2022-08-04T17:57:18;2.37;;;0.90;;
20322;SDS011;10319;52.206;20.996;2022-08-04T17:59:44;4.32;;;1.10;;
20322;SDS011;10319;52.206;20.996;2022-08-04T18:02:10;3.33;;;1.00;;
20322;SDS011;10319;52.206;20.996;2022-08-04T18:07:13;4.70;;;1.27;;
20322;SDS011;10319;52.206;20.996;2022-08-04T18:09:39;3.13;;;0.95;;
20322;SDS011;10319;52.206;20.996;2022-08-04T18:12:09;4.30;;;1.20;;
20322;SDS011;10319;52.206;20.996;2022-08-04T18:14:45;2.85;;;0.93;;
20322;SDS011;10319;52.206;20.996;2022-08-04T18:17:11;3.47;;;1.10;;
20322;SDS011;10319;52.206;20.996;2022-08-04T18:19:37;4.45;;;1.20;;
20322;SDS011;10319;52.206;20.996;2022-08-04T18:22:03;3.78;;;1.20;;
20322;SDS011;10319;52.206;20.996;2022-08-04T18:24:28;6.13;;;1.52;;
20322;SDS011;10319;52.206;20.996;2022-08-04T18:26:54;6.38;;;1.50;;
20322;SDS011;10319;52.206;20.996;2022-08-04T18:29:19;3.93;;;1.10;;
20322;SDS011;10319;52.206;20.996;2022-08-04T18:31:44;4.47;;;1.40;;
20322;SDS011;10319;52.206;20.996;2022-08-04T18:34:09;6.75;;;1.25;;
20322;SDS011;10319;52.206;20.996;2022-08-04T18:36:35;7.40;;;1.60;;
20322;SDS011;10319;52.206;20.996;2022-08-04T18:39:01;4.97;;;1.20;;
20322;SDS011;10319;52.206;20.996;2022-08-04T18:41:27;6.30;;;1.38;;